Fram — LADA7 — position and weather

sailwx.info

Track history (hours):
 
Tides and Currents Weather Stations Pressure Air Temp Water Temp Dewpoint Dewpoint Depression Visibility Wind Speed Wind Dir Waves Ship Positions

Fram

Last reported at 2017-Oct-27 07:00 UTC. Time now 2017-Nov-23 00:23 UTC.
Position S 26°06' W 046°15'.
Warning: this ship's position is 26 days out of date.

Length 114 m; draft 5.1 m.

Type: Ship. MMSI: 258932000.

Date/timePositionNaut miles runAvg speedWind from/ knotsBaromVisibWave heightAir tempDewpointWater temp
2017-Oct-27 07:00S 26°06' W 046°15'815.9
2017-Oct-27 06:30S 25°59' W 046°10'915.8
2017-Oct-27 05:58S 25°52' W 046°05'715.8
2017-Oct-27 05:29S 25°45' W 046°01'815.7
2017-Oct-27 05:00S 25°39' W 045°57'815.8
2017-Oct-27 04:29S 25°32' W 045°52'915.8
2017-Oct-27 03:54S 25°24' W 045°47'615.3
2017-Oct-27 03:30S 25°19' W 045°44'815.3
2017-Oct-27 03:00S 25°12' W 045°39'815.2
2017-Oct-27 02:29S 25°05' W 045°35'1114.9
2017-Oct-27 01:46S 24°56' W 045°29'414.9
2017-Oct-27 01:30S 24°53' W 045°27'  
2017-Oct-18 19:23N 00°11' W 050°44'514.0
2017-Oct-18 19:00N 00°10' W 050°49'713.0
2017-Oct-18 18:30N 00°09' W 050°56'612.2
2017-Oct-18 18:00N 00°04' W 050°59'612.0
2017-Oct-18 17:30S 00°01' W 051°03'611.7
2017-Oct-18 17:00S 00°05' W 051°07'5 9.9
2017-Oct-18 16:30S 00°08' W 051°11'510.9
2017-Oct-18 16:00S 00°11' W 051°16'  
Track history (hours):
 
Tides and Currents Weather Stations Pressure Air Temp Water Temp Dewpoint Dewpoint Depression Visibility Wind Speed Wind Dir Waves Ship Positions

Fram

Last reported at 2017-Oct-27 07:00 UTC. Time now 2017-Nov-23 00:23 UTC.
Position S 26°06' W 046°15'.
Warning: this ship's position is 26 days out of date.

Length 114 m; draft 5.1 m.

Type: Ship. MMSI: 258932000.

Date/timePositionNaut miles runAvg speedWind from/ knotsBaromVisibWave heightAir tempDewpointWater temp
2017-Oct-27 07:00S 26°06' W 046°15'815.9
2017-Oct-27 06:30S 25°59' W 046°10'915.8
2017-Oct-27 05:58S 25°52' W 046°05'715.8
2017-Oct-27 05:29S 25°45' W 046°01'815.7
2017-Oct-27 05:00S 25°39' W 045°57'815.8
2017-Oct-27 04:29S 25°32' W 045°52'915.8
2017-Oct-27 03:54S 25°24' W 045°47'615.3
2017-Oct-27 03:30S 25°19' W 045°44'815.3
2017-Oct-27 03:00S 25°12' W 045°39'815.2
2017-Oct-27 02:29S 25°05' W 045°35'1114.9
2017-Oct-27 01:46S 24°56' W 045°29'414.9
2017-Oct-27 01:30S 24°53' W 045°27'  
2017-Oct-18 19:23N 00°11' W 050°44'514.0
2017-Oct-18 19:00N 00°10' W 050°49'713.0
2017-Oct-18 18:30N 00°09' W 050°56'612.2
2017-Oct-18 18:00N 00°04' W 050°59'612.0
2017-Oct-18 17:30S 00°01' W 051°03'611.7
2017-Oct-18 17:00S 00°05' W 051°07'5 9.9
2017-Oct-18 16:30S 00°08' W 051°11'510.9
2017-Oct-18 16:00S 00°11' W 051°16'  

Dump ship's entire track history